Time;durP1;ratioP1;P1;durP2;ratioP2;P2;SDS_P1;SDS_P2;PMS_P1;PMS_P2;Temp;Humidity;BMP_temperature;BMP_pressure;BME280_temperature;BME280_humidity;BME280_pressure;Samples;Min_cycle;Max_cycle;Signal;HPM_P1;HPM_P2
2022/06/12 00:00:30;;;;;;;9.63;2.08;;;26.70;99.90;;;;;;4953906;28;20066;-52
2022/06/12 00:02:57;;;;;;;;;;;26.50;99.90;;;;;;4950700;28;20518;-51
2022/06/12 00:05:25;;;;;;;11.50;2.50;;;26.20;99.90;;;;;;4952024;28;19922;-52
2022/06/12 00:07:51;;;;;;;10.82;2.45;;;26.10;99.90;;;;;;4952485;29;20364;-55
2022/06/12 00:10:18;;;;;;;8.85;2.30;;;26.10;99.90;;;;;;4952902;28;20054;-54
2022/06/12 00:12:45;;;;;;;8.38;2.40;;;25.80;99.90;;;;;;4954278;28;20098;-52
2022/06/12 00:15:15;;;;;;;8.00;2.20;;;25.60;99.90;;;;;;4954047;28;20059;-53
2022/06/12 00:17:43;;;;;;;13.18;3.75;;;25.50;99.90;;;;;;4944424;29;20269;-52
2022/06/12 00:20:11;;;;;;;15.63;3.33;;;25.40;99.90;;;;;;4948236;29;20020;-54
2022/06/12 00:22:36;;;;;;;15.57;3.70;;;25.40;99.90;;;;;;4952136;28;20062;-54
2022/06/12 00:25:06;;;;;;;11.07;3.13;;;25.30;99.90;;;;;;4953773;28;20050;-54
2022/06/12 00:27:32;;;;;;;8.45;2.72;;;25.30;99.90;;;;;;4952874;28;20097;-51
2022/06/12 00:29:58;;;;;;;12.65;2.30;;;25.40;99.90;;;;;;4954007;28;20031;-52
2022/06/12 00:32:24;;;;;;;12.35;2.40;;;25.40;99.90;;;;;;4952602;28;20023;-53
2022/06/12 00:34:53;;;;;;;10.30;2.58;;;25.40;99.90;;;;;;4939075;29;20023;-54
2022/06/12 00:37:22;;;;;;;8.43;2.30;;;25.30;99.90;;;;;;4953648;28;20040;-54
2022/06/12 00:39:50;;;;;;;10.25;2.20;;;25.30;99.90;;;;;;4952936;28;20078;-53
2022/06/12 00:42:21;;;;;;;9.48;2.45;;;25.20;99.90;;;;;;4952569;28;20031;-52
2022/06/12 00:44:47;;;;;;;9.68;2.42;;;25.20;99.90;;;;;;4953309;28;20047;-55
2022/06/12 00:47:15;;;;;;;11.45;2.63;;;25.30;99.90;;;;;;4953351;28;20024;-53
2022/06/12 00:49:47;;;;;;;8.93;1.98;;;25.40;99.90;;;;;;4953652;28;20039;-53
2022/06/12 00:52:15;;;;;;;9.55;3.15;;;25.40;99.90;;;;;;4953547;28;20023;-54
2022/06/12 00:54:45;;;;;;;12.45;2.35;;;25.50;99.90;;;;;;4952791;28;20043;-54
2022/06/12 00:57:12;;;;;;;14.57;2.80;;;25.40;99.90;;;;;;4953381;28;20011;-52
2022/06/12 00:59:43;;;;;;;11.80;2.78;;;25.60;99.90;;;;;;4954129;28;20064;-54
2022/06/12 01:02:13;;;;;;;8.77;2.55;;;25.70;99.90;;;;;;4952488;28;20047;-52
2022/06/12 01:07:32;;;;;;;12.55;2.80;;;25.80;99.90;;;;;;4953721;29;20030;-49
2022/06/12 01:10:02;;;;;;;8.98;2.05;;;25.60;99.90;;;;;;4952348;28;20023;-51
2022/06/12 01:12:33;;;;;;;12.88;2.75;;;25.40;99.90;;;;;;4952423;28;20023;-50
2022/06/12 01:15:07;;;;;;;11.73;2.13;;;25.40;99.90;;;;;;4950182;29;20467;-50
2022/06/12 01:17:33;;;;;;;15.88;2.35;;;25.20;99.90;;;;;;4952182;29;20027;-54
2022/06/12 01:20:04;;;;;;;7.70;2.05;;;25.30;99.90;;;;;;4951703;28;20074;-53
2022/06/12 01:22:42;;;;;;;6.25;2.45;;;25.40;99.90;;;;;;4953000;29;20113;-52
2022/06/12 01:25:32;;;;;;;13.10;4.07;;;25.40;99.90;;;;;;4952980;28;20042;-54
2022/06/12 01:28:03;;;;;;;11.80;2.83;;;25.60;99.90;;;;;;4948722;28;20038;-51
2022/06/12 01:30:41;;;;;;;11.05;3.80;;;25.70;99.90;;;;;;4952563;29;20027;-54
2022/06/12 01:33:25;;;;;;;11.98;2.47;;;25.70;99.90;;;;;;4948328;29;20320;-54
2022/06/12 01:36:29;;;;;;;11.27;3.30;;;25.70;99.90;;;;;;4953020;28;20047;-52
2022/06/12 01:39:18;;;;;;;10.13;3.47;;;25.70;99.90;;;;;;4953040;28;20102;-53
2022/06/12 01:41:47;;;;;;;12.23;3.30;;;25.70;99.90;;;;;;4952857;28;20031;-52
2022/06/12 01:44:33;;;;;;;10.32;3.25;;;25.70;99.90;;;;;;4952901;28;20034;-51
2022/06/12 01:47:04;;;;;;;12.32;2.80;;;25.70;99.90;;;;;;4951881;28;20080;-51
2022/06/12 01:49:45;;;;;;;11.13;3.03;;;25.30;99.90;;;;;;4952707;28;20106;-50
2022/06/12 01:52:21;;;;;;;10.35;2.95;;;25.10;99.90;;;;;;4953171;28;20479;-52
2022/06/12 01:55:07;;;;;;;11.10;2.47;;;25.10;99.90;;;;;;4952543;28;20019;-51
2022/06/12 01:57:40;;;;;;;10.57;2.30;;;25.30;99.90;;;;;;4941347;29;20163;-50
2022/06/12 02:00:23;;;;;;;10.63;2.50;;;25.40;99.90;;;;;;4975920;23;20145;-51
2022/06/12 02:03:04;;;;;;;10.57;2.30;;;25.50;99.90;;;;;;4991146;28;20031;-50
2022/06/12 02:06:09;;;;;;;12.60;2.08;;;25.50;99.90;;;;;;4991419;28;20023;-50
2022/06/12 02:08:42;;;;;;;9.75;2.25;;;25.50;99.90;;;;;;4985654;28;20065;-50
2022/06/12 02:14:14;;;;;;;13.50;2.75;;;25.60;99.90;;;;;;4991275;28;20045;-49
2022/06/12 02:16:45;;;;;;;13.15;2.83;;;25.60;99.90;;;;;;4990484;28;20015;-51
2022/06/12 02:19:20;;;;;;;13.02;2.83;;;25.60;99.90;;;;;;4990952;28;20026;-51
2022/06/12 02:22:08;;;;;;;8.98;2.75;;;25.60;99.90;;;;;;4991578;28;20026;-50
2022/06/12 02:24:42;;;;;;;15.50;3.10;;;25.70;99.90;;;;;;4991896;28;20039;-49
2022/06/12 02:27:18;;;;;;;10.57;2.88;;;25.60;99.90;;;;;;4989395;28;20475;-49
2022/06/12 02:29:55;;;;;;;12.70;2.50;;;25.10;99.90;;;;;;4979396;28;20034;-50
2022/06/12 02:32:33;;;;;;;9.55;2.45;;;24.80;99.90;;;;;;4989579;28;20544;-49
2022/06/12 02:35:10;;;;;;;;;;;24.70;99.90;;;;;;4988557;28;20037;-49
2022/06/12 02:37:41;;;;;;;;;;;24.70;99.90;;;;;;4989532;28;19914;-49
2022/06/12 02:40:15;;;;;;;10.25;2.85;;;24.70;99.90;;;;;;4989355;28;19964;-49
2022/06/12 02:42:44;;;;;;;10.25;2.30;;;24.70;99.90;;;;;;4990312;28;20054;-49
2022/06/12 02:45:28;;;;;;;9.95;2.42;;;24.70;99.90;;;;;;4990937;28;20092;-49
2022/06/12 02:47:54;;;;;;;11.73;2.78;;;24.70;99.90;;;;;;4982973;28;20014;-49
2022/06/12 02:50:22;;;;;;;8.93;2.20;;;24.70;99.90;;;;;;4973288;28;20375;-49
2022/06/12 02:52:52;;;;;;;8.50;2.05;;;24.70;99.90;;;;;;4991048;28;20037;-49
2022/06/12 02:56:00;;;;;;;9.70;3.00;;;24.70;99.90;;;;;;4990047;28;20014;-49
2022/06/12 02:58:51;;;;;;;7.80;2.10;;;24.70;99.90;;;;;;4960825;28;20569;-49
2022/06/12 03:01:22;;;;;;;9.25;2.42;;;24.70;99.90;;;;;;4994527;28;20070;-50
2022/06/12 03:03:59;;;;;;;10.77;2.65;;;24.70;99.90;;;;;;4994550;28;20027;-50
2022/06/12 03:06:26;;;;;;;9.80;2.63;;;24.60;99.90;;;;;;4994566;28;20030;-50
2022/06/12 03:09:02;;;;;;;7.82;2.00;;;24.70;99.90;;;;;;4994472;28;20030;-50
2022/06/12 03:11:33;;;;;;;11.32;3.15;;;24.60;99.90;;;;;;4994452;28;20160;-50
2022/06/12 03:14:00;;;;;;;9.48;2.83;;;24.60;99.90;;;;;;4994322;28;20022;-50
2022/06/12 03:16:28;;;;;;;10.90;2.53;;;24.50;99.90;;;;;;4992988;28;20031;-49
2022/06/12 03:18:59;;;;;;;14.32;2.67;;;24.60;99.90;;;;;;4994198;28;20061;-49
2022/06/12 03:21:29;;;;;;;10.02;2.75;;;24.50;99.90;;;;;;4994244;28;20053;-50
2022/06/12 03:24:18;;;;;;;11.25;3.53;;;24.50;99.90;;;;;;4993917;28;20031;-50
2022/06/12 03:27:15;;;;;;;12.88;2.30;;;24.40;99.90;;;;;;4994056;28;20040;-49
2022/06/12 03:29:59;;;;;;;10.70;2.35;;;24.50;99.90;;;;;;4989278;28;20498;-49
2022/06/12 03:32:27;;;;;;;11.88;2.92;;;24.40;99.90;;;;;;4993902;28;20026;-49
2022/06/12 03:35:13;;;;;;;16.33;3.80;;;24.50;99.90;;;;;;4993931;28;20026;-49
2022/06/12 03:37:53;;;;;;;6.63;2.40;;;24.50;99.90;;;;;;4994038;28;20022;-49
2022/06/12 03:40:30;;;;;;;14.95;3.10;;;24.60;99.90;;;;;;4981094;28;20046;-50
2022/06/12 03:43:08;;;;;;;10.23;2.70;;;24.60;99.90;;;;;;4993931;28;20026;-49
2022/06/12 03:45:48;;;;;;;9.35;2.55;;;24.60;99.90;;;;;;4981534;28;20038;-49
2022/06/12 03:48:22;;;;;;;8.45;2.08;;;24.60;99.90;;;;;;4993573;28;20018;-49
2022/06/12 03:51:14;;;;;;;12.32;3.30;;;24.60;99.90;;;;;;4993904;28;20425;-49
2022/06/12 03:54:01;;;;;;;11.23;2.97;;;24.60;99.90;;;;;;4993499;28;20015;-49
2022/06/12 03:59:38;;;;;;;13.30;3.22;;;24.60;99.90;;;;;;5003136;23;20033;-56
2022/06/12 04:02:06;;;;;;;8.45;2.35;;;24.60;99.90;;;;;;4935784;29;20051;-57
2022/06/12 04:04:34;;;;;;;14.23;3.15;;;24.50;99.90;;;;;;4935656;29;20023;-58
2022/06/12 04:07:04;;;;;;;11.80;2.80;;;24.50;99.90;;;;;;4935621;29;20034;-57
2022/06/12 04:09:34;;;;;;;8.77;2.40;;;24.50;99.90;;;;;;4935634;29;20015;-57
2022/06/12 04:12:03;;;;;;;11.60;2.85;;;24.50;99.90;;;;;;4934750;29;20100;-57
2022/06/12 04:14:38;;;;;;;13.20;2.92;;;24.50;99.90;;;;;;4935737;29;20019;-57
2022/06/12 04:17:05;;;;;;;9.35;2.65;;;24.40;99.90;;;;;;4950276;28;20042;-57
2022/06/12 04:19:58;;;;;;;10.20;2.67;;;24.50;99.90;;;;;;4935580;29;20032;-57
2022/06/12 04:22:20;;;;;;;11.15;3.20;;;24.40;99.90;;;;;;4935635;29;20059;-57
2022/06/12 04:24:51;;;;;;;7.65;2.70;;;24.50;99.90;;;;;;4935356;29;20050;-57
2022/06/12 04:27:23;;;;;;;8.63;1.95;;;24.40;99.90;;;;;;4950218;28;20027;-57
2022/06/12 04:29:58;;;;;;;14.75;2.92;;;24.30;99.90;;;;;;4935470;29;20035;-57
2022/06/12 04:32:25;;;;;;;10.45;2.75;;;24.30;99.90;;;;;;4935247;29;20036;-57
2022/06/12 04:34:53;;;;;;;8.50;2.60;;;24.30;99.90;;;;;;4935331;29;20336;-57
2022/06/12 04:37:20;;;;;;;;;;;24.30;99.90;;;;;;4935518;29;20591;-57
2022/06/12 04:39:48;;;;;;;14.25;2.55;;;24.30;99.90;;;;;;4935010;29;19906;-57
2022/06/12 04:42:23;;;;;;;10.65;2.67;;;24.30;99.90;;;;;;4935147;29;20174;-57
2022/06/12 04:44:49;;;;;;;11.45;2.95;;;24.30;99.90;;;;;;4934682;29;20051;-57
2022/06/12 04:47:19;;;;;;;10.95;2.53;;;24.30;99.90;;;;;;4934963;29;20028;-57
2022/06/12 04:49:46;;;;;;;11.50;3.20;;;24.30;99.90;;;;;;4935050;29;20036;-57
2022/06/12 04:52:13;;;;;;;8.68;2.22;;;24.20;99.90;;;;;;4921869;29;20051;-57
2022/06/12 04:54:41;;;;;;;13.30;2.83;;;24.20;99.90;;;;;;4934939;29;20035;-57
2022/06/12 04:57:09;;;;;;;10.77;2.33;;;24.30;99.90;;;;;;4934690;29;20110;-57
2022/06/12 04:59:35;;;;;;;;;;;24.30;99.90;;;;;;4935113;29;20035;-57
2022/06/12 05:02:02;;;;;;;11.15;2.22;;;24.20;99.90;;;;;;4934573;29;19942;-57
2022/06/12 05:04:29;;;;;;;10.45;2.60;;;24.10;99.90;;;;;;4934690;29;20040;-59
2022/06/12 05:06:56;;;;;;;12.52;2.67;;;24.10;99.90;;;;;;4934717;29;20036;-60
2022/06/12 05:09:25;;;;;;;9.73;2.35;;;24.10;99.90;;;;;;4934789;29;20345;-57
2022/06/12 05:11:53;;;;;;;18.02;3.03;;;24.20;99.90;;;;;;4934540;29;20043;-57
2022/06/12 05:14:19;;;;;;;12.25;2.97;;;24.10;99.90;;;;;;4934648;29;20388;-57
2022/06/12 05:16:54;;;;;;;10.98;2.28;;;24.20;99.90;;;;;;4934395;29;20027;-58
2022/06/12 05:19:25;;;;;;;10.15;2.97;;;24.20;99.90;;;;;;4934327;29;20047;-57
2022/06/12 05:21:52;;;;;;;11.05;2.92;;;24.10;99.90;;;;;;4934377;29;20051;-57
2022/06/12 05:24:18;;;;;;;17.50;2.87;;;24.10;99.90;;;;;;4933860;29;20042;-57
2022/06/12 05:26:45;;;;;;;12.57;2.67;;;24.20;99.90;;;;;;4948895;28;20031;-57
2022/06/12 05:29:25;;;;;;;12.68;2.75;;;24.20;99.90;;;;;;4934195;29;20032;-58
2022/06/12 05:31:52;;;;;;;12.75;3.17;;;24.10;99.90;;;;;;4934402;29;20098;-59
2022/06/12 05:34:19;;;;;;;10.15;2.70;;;24.10;99.90;;;;;;4934149;29;20197;-58
2022/06/12 05:36:45;;;;;;;11.85;2.80;;;24.30;99.90;;;;;;4934084;29;20034;-59
2022/06/12 05:39:12;;;;;;;10.40;2.33;;;24.30;99.90;;;;;;4934209;29;20128;-58
2022/06/12 05:41:38;;;;;;;13.77;2.22;;;24.30;99.90;;;;;;4948660;28;20070;-59
2022/06/12 05:44:05;;;;;;;18.77;2.97;;;24.30;99.90;;;;;;4948639;28;20119;-57
2022/06/12 05:46:31;;;;;;;10.23;3.65;;;24.30;99.90;;;;;;4933897;29;20039;-57
2022/06/12 05:48:58;;;;;;;11.45;2.63;;;24.30;99.90;;;;;;4934306;29;20024;-57
2022/06/12 05:51:24;;;;;;;16.00;3.28;;;24.30;99.90;;;;;;4934298;29;20420;-58
2022/06/12 05:53:50;;;;;;;15.13;2.80;;;24.30;99.90;;;;;;4933918;29;20102;-57
2022/06/12 05:56:20;;;;;;;9.70;2.35;;;24.30;99.90;;;;;;4934078;29;20383;-58
2022/06/12 05:58:46;;;;;;;13.50;3.72;;;24.30;99.90;;;;;;4933816;29;20027;-57
2022/06/12 06:01:14;;;;;;;6.60;2.88;;;24.30;99.90;;;;;;4933833;29;20050;-58
2022/06/12 06:03:41;;;;;;;11.02;3.28;;;24.20;99.90;;;;;;4933801;29;20042;-57
2022/06/12 06:06:08;;;;;;;15.82;6.90;;;24.30;99.90;;;;;;4933799;29;20036;-57
2022/06/12 06:08:35;;;;;;;11.35;3.45;;;24.20;99.90;;;;;;4933657;29;20031;-57
2022/06/12 06:11:01;;;;;;;14.18;5.15;;;24.20;99.90;;;;;;4933742;29;20567;-59
2022/06/12 06:13:26;;;;;;;10.20;4.45;;;24.20;99.90;;;;;;4934030;29;20036;-60
2022/06/12 06:15:52;;;;;;;15.65;3.47;;;24.20;99.90;;;;;;4948366;28;20075;-60
2022/06/12 06:18:19;;;;;;;11.25;3.90;;;24.20;99.90;;;;;;4933814;29;20031;-60
2022/06/12 06:20:47;;;;;;;12.77;3.97;;;24.20;99.90;;;;;;4933665;29;20077;-57
2022/06/12 06:23:13;;;;;;;10.68;3.00;;;24.20;99.90;;;;;;4933782;29;20399;-60
2022/06/12 06:25:39;;;;;;;20.95;10.35;;;24.20;99.90;;;;;;4933502;29;20099;-58
2022/06/12 06:28:08;;;;;;;12.82;4.22;;;24.20;99.90;;;;;;4933712;29;20031;-58
2022/06/12 06:30:34;;;;;;;15.00;3.28;;;24.30;99.90;;;;;;4933583;29;20035;-59
2022/06/12 06:33:00;;;;;;;17.33;4.10;;;24.40;99.90;;;;;;4933886;29;20444;-58
2022/06/12 06:35:26;;;;;;;11.85;3.63;;;24.50;99.90;;;;;;4936766;29;20028;-58
2022/06/12 06:37:53;;;;;;;9.85;2.75;;;24.50;99.90;;;;;;4937111;29;20027;-60
2022/06/12 06:40:21;;;;;;;10.23;2.90;;;24.50;99.90;;;;;;4937244;29;20032;-58
2022/06/12 06:42:47;;;;;;;12.55;3.85;;;24.50;99.90;;;;;;4937186;29;20020;-58
2022/06/12 06:48:00;;;;;;;18.55;8.10;;;24.50;99.90;;;;;;4937379;29;20063;-58
2022/06/12 06:50:26;;;;;;;32.60;15.52;;;24.50;99.90;;;;;;4936779;29;20441;-58
2022/06/12 06:52:52;;;;;;;25.30;5.63;;;24.60;99.90;;;;;;4936924;29;20498;-58
2022/06/12 06:55:18;;;;;;;21.65;5.38;;;24.60;99.90;;;;;;4936780;29;20432;-58
2022/06/12 06:57:47;;;;;;;25.38;6.32;;;24.60;99.90;;;;;;4936701;29;20032;-58
2022/06/12 07:00:22;;;;;;;20.65;5.85;;;24.60;99.90;;;;;;4936286;29;20492;-57
2022/06/12 07:02:48;;;;;;;20.75;4.35;;;24.50;99.90;;;;;;4936625;29;20038;-57
2022/06/12 07:05:14;;;;;;;17.88;4.50;;;24.50;99.90;;;;;;4936522;29;20035;-57
2022/06/12 07:07:40;;;;;;;17.67;4.30;;;24.50;99.90;;;;;;4936591;29;20024;-57
2022/06/12 07:10:08;;;;;;;16.58;3.70;;;24.60;99.90;;;;;;4936629;29;20031;-57
2022/06/12 07:12:34;;;;;;;20.85;4.20;;;24.60;99.90;;;;;;4936389;29;20020;-57
2022/06/12 07:15:00;;;;;;;17.63;4.28;;;24.50;99.90;;;;;;4936724;29;20488;-57
2022/06/12 07:17:26;;;;;;;19.10;4.13;;;24.50;99.90;;;;;;4936350;29;20062;-57
2022/06/12 07:19:51;;;;;;;14.05;3.50;;;24.50;99.90;;;;;;4951224;28;20028;-57
2022/06/12 07:22:17;;;;;;;23.42;5.43;;;24.50;99.90;;;;;;4936122;29;20063;-57
2022/06/12 07:24:43;;;;;;;18.55;6.15;;;24.60;99.90;;;;;;4950859;28;20035;-57
2022/06/12 07:27:09;;;;;;;15.25;4.07;;;24.70;99.90;;;;;;4936340;29;20028;-57
2022/06/12 07:29:35;;;;;;;16.65;3.90;;;24.70;99.90;;;;;;4923154;29;20019;-57
2022/06/12 07:32:01;;;;;;;17.13;3.60;;;24.80;99.90;;;;;;4936412;29;20038;-57
2022/06/12 07:34:27;;;;;;;17.35;4.35;;;24.80;99.90;;;;;;4935875;29;20039;-57
2022/06/12 07:36:54;;;;;;;15.13;3.00;;;24.90;99.90;;;;;;4936136;29;20028;-57
2022/06/12 07:39:24;;;;;;;14.63;4.17;;;25.00;99.90;;;;;;4936107;29;20119;-57
2022/06/12 07:41:51;;;;;;;10.77;3.75;;;25.00;99.90;;;;;;4936023;29;20035;-57
2022/06/12 07:44:20;;;;;;;;;;;25.00;99.90;;;;;;4936337;29;20043;-57
2022/06/12 07:46:47;;;;;;;15.30;4.43;;;25.00;99.90;;;;;;4934800;29;20414;-57
2022/06/12 07:49:14;;;;;;;;;;;24.90;99.90;;;;;;4936237;29;20027;-56
2022/06/12 07:51:40;;;;;;;12.05;3.75;;;25.00;99.90;;;;;;4935755;29;19910;-57
2022/06/12 07:54:06;;;;;;;21.42;3.47;;;25.00;99.90;;;;;;4935987;29;20502;-57
2022/06/12 07:56:32;;;;;;;13.90;3.78;;;25.00;99.90;;;;;;4950664;28;20111;-57
2022/06/12 07:58:58;;;;;;;10.63;3.00;;;25.00;99.90;;;;;;4935558;29;20119;-58
2022/06/12 08:01:26;;;;;;;15.18;3.67;;;25.00;99.90;;;;;;4935267;29;20052;-58
2022/06/12 08:03:53;;;;;;;14.45;3.67;;;25.00;99.90;;;;;;4935385;29;20389;-58
2022/06/12 08:06:21;;;;;;;15.85;3.72;;;25.00;99.90;;;;;;4935493;29;20465;-58
2022/06/12 08:08:48;;;;;;;11.98;2.78;;;25.00;99.90;;;;;;4950226;28;20065;-58
2022/06/12 08:11:14;;;;;;;10.70;2.95;;;25.00;99.90;;;;;;4950341;28;20035;-58
2022/06/12 08:13:40;;;;;;;9.35;3.00;;;25.10;99.90;;;;;;4935245;29;20030;-59
2022/06/12 08:16:07;;;;;;;15.45;3.38;;;25.10;99.90;;;;;;4935409;29;20030;-57
2022/06/12 08:18:33;;;;;;;10.15;3.25;;;25.20;99.90;;;;;;4950192;28;20095;-58
2022/06/12 08:21:05;;;;;;;9.60;3.28;;;25.20;99.90;;;;;;4933703;29;20031;-58
2022/06/12 08:23:41;;;;;;;20.23;3.58;;;25.10;99.90;;;;;;4934964;29;20484;-58
2022/06/12 08:26:24;;;;;;;12.60;3.65;;;25.20;99.90;;;;;;4949764;28;20096;-58
2022/06/12 08:28:56;;;;;;;16.50;2.97;;;25.20;99.90;;;;;;4935098;29;20107;-58
2022/06/12 08:31:28;;;;;;;13.77;3.15;;;25.20;99.90;;;;;;4935186;29;20023;-58
2022/06/12 08:33:59;;;;;;;25.27;11.55;;;25.30;99.90;;;;;;4949511;28;20038;-58
2022/06/12 08:36:26;;;;;;;13.60;3.75;;;25.20;99.90;;;;;;4934900;29;20023;-58
2022/06/12 08:38:53;;;;;;;10.70;3.10;;;25.20;99.90;;;;;;4934908;29;20452;-58
2022/06/12 08:41:28;;;;;;;12.82;2.88;;;25.20;99.90;;;;;;4934778;29;20030;-58
2022/06/12 08:44:13;;;;;;;15.93;3.03;;;25.30;99.90;;;;;;4934906;29;20028;-58
2022/06/12 08:46:45;;;;;;;13.02;3.70;;;25.40;99.90;;;;;;4934799;29;20046;-57
2022/06/12 08:49:18;;;;;;;16.02;2.78;;;25.40;99.90;;;;;;4934737;29;20075;-58
2022/06/12 08:52:09;;;;;;;11.73;2.97;;;25.40;99.90;;;;;;4934570;29;20039;-58
2022/06/12 08:54:40;;;;;;;14.70;4.10;;;25.40;99.90;;;;;;4934615;29;20110;-57
2022/06/12 08:57:14;;;;;;;11.35;3.08;;;25.40;99.90;;;;;;4934426;29;20428;-58
2022/06/12 08:59:53;;;;;;;13.07;3.55;;;25.40;99.90;;;;;;4934467;29;20028;-58
2022/06/12 09:02:26;;;;;;;10.10;2.58;;;25.30;99.90;;;;;;4949019;28;20024;-58
2022/06/12 09:04:53;;;;;;;11.02;3.15;;;25.40;99.90;;;;;;4934257;29;20495;-58
2022/06/12 09:07:35;;;;;;;20.30;3.50;;;25.30;99.90;;;;;;4934330;29;20027;-56
2022/06/12 09:10:33;;;;;;;11.98;3.42;;;25.30;99.90;;;;;;4934200;29;20024;-56
2022/06/12 09:13:17;;;;;;;13.15;2.72;;;25.30;99.90;;;;;;4922926;29;20040;-56
2022/06/12 09:16:22;;;;;;;14.30;3.78;;;25.30;99.90;;;;;;4934081;29;20031;-58
2022/06/12 09:19:04;;;;;;;12.82;3.63;;;25.30;99.90;;;;;;4934032;29;20016;-56
2022/06/12 09:21:40;;;;;;;15.32;4.18;;;25.30;99.90;;;;;;4934164;29;20027;-56
2022/06/12 09:24:11;;;;;;;15.13;3.15;;;25.30;99.90;;;;;;4948485;28;20050;-56
2022/06/12 09:26:43;;;;;;;10.45;2.65;;;25.30;99.90;;;;;;4934237;29;20038;-57
2022/06/12 09:29:21;;;;;;;10.65;2.80;;;25.30;99.90;;;;;;4933937;29;20347;-56
2022/06/12 09:32:07;;;;;;;13.75;3.10;;;25.30;99.90;;;;;;4948614;28;20039;-57
2022/06/12 09:34:42;;;;;;;13.40;3.88;;;25.40;99.90;;;;;;4948245;28;20028;-57
2022/06/12 09:40:12;;;;;;;15.25;2.78;;;25.50;99.90;;;;;;4933684;29;20051;-56
2022/06/12 09:43:00;;;;;;;14.43;3.13;;;25.60;99.90;;;;;;4933669;29;20103;-56
2022/06/12 09:45:55;;;;;;;13.95;3.13;;;25.70;99.90;;;;;;4933804;29;20044;-57
2022/06/12 09:48:39;;;;;;;8.18;2.50;;;25.70;99.90;;;;;;4933424;29;20102;-58
2022/06/12 09:51:23;;;;;;;13.18;2.85;;;25.80;99.90;;;;;;4933714;29;20046;-57
2022/06/12 09:54:18;;;;;;;14.00;3.50;;;25.80;99.90;;;;;;4933514;29;20519;-57
2022/06/12 09:56:54;;;;;;;16.67;4.00;;;25.70;99.90;;;;;;4933535;29;20038;-57
2022/06/12 09:59:34;;;;;;;10.98;2.95;;;25.70;99.90;;;;;;4933600;29;20047;-57
2022/06/12 10:02:11;;;;;;;12.52;3.42;;;25.70;99.90;;;;;;4933424;29;20051;-58
2022/06/12 10:04:43;;;;;;;15.40;3.63;;;25.70;99.90;;;;;;4933715;29;20039;-57
2022/06/12 10:07:17;;;;;;;11.95;2.95;;;25.80;99.90;;;;;;4933565;29;20042;-57
2022/06/12 10:09:56;;;;;;;15.50;3.95;;;25.70;99.90;;;;;;4935966;29;20052;-57
2022/06/12 10:12:36;;;;;;;15.20;3.30;;;25.70;99.90;;;;;;4951192;28;20102;-57
2022/06/12 10:15:12;;;;;;;10.43;2.78;;;25.70;99.90;;;;;;4937655;29;20016;-57
2022/06/12 10:17:51;;;;;;;14.15;3.75;;;25.70;99.90;;;;;;4937304;29;20038;-57
2022/06/12 10:20:29;;;;;;;14.48;3.83;;;25.70;99.90;;;;;;4937354;29;20028;-57
2022/06/12 10:22:57;;;;;;;16.98;3.08;;;25.70;99.90;;;;;;4925219;29;20032;-57
2022/06/12 10:25:33;;;;;;;14.30;3.63;;;25.70;99.90;;;;;;4937270;29;20040;-57
2022/06/12 10:28:06;;;;;;;12.63;3.33;;;25.70;99.90;;;;;;4937452;29;20051;-57
2022/06/12 10:30:42;;;;;;;14.88;3.05;;;25.80;99.90;;;;;;4937476;29;20388;-57
2022/06/12 10:33:17;;;;;;;11.52;2.90;;;25.80;99.90;;;;;;4937782;29;20020;-58
2022/06/12 10:35:52;;;;;;;15.30;3.78;;;25.60;99.90;;;;;;4937482;29;20086;-57
2022/06/12 10:38:23;;;;;;;12.32;3.13;;;25.70;99.90;;;;;;4937082;29;20145;-57
2022/06/12 10:40:58;;;;;;;10.90;3.92;;;25.70;99.90;;;;;;4937212;29;20063;-57
2022/06/12 10:43:48;;;;;;;13.85;3.53;;;25.70;99.90;;;;;;4937246;29;20038;-57
2022/06/12 10:46:14;;;;;;;13.55;4.35;;;25.80;99.90;;;;;;4934733;29;20103;-57
2022/06/12 10:48:40;;;;;;;11.05;2.85;;;25.70;99.90;;;;;;4951648;28;20383;-57
2022/06/12 10:51:35;;;;;;;12.98;3.75;;;25.80;99.90;;;;;;4933956;29;20484;-57
2022/06/12 10:54:13;;;;;;;18.77;8.18;;;25.80;99.90;;;;;;4952117;28;20118;-57
2022/06/12 10:57:22;;;;;;;15.27;5.65;;;25.80;99.90;;;;;;4937251;29;20034;-58
2022/06/12 10:59:57;;;;;;;18.75;6.78;;;25.80;99.90;;;;;;4940451;29;20387;-57
2022/06/12 11:02:32;;;;;;;14.63;5.95;;;25.80;99.90;;;;;;4941099;29;20050;-58
2022/06/12 11:05:18;;;;;;;11.77;4.05;;;25.80;99.90;;;;;;4941013;29;20055;-56
2022/06/12 11:08:09;;;;;;;12.52;3.97;;;25.90;99.90;;;;;;4930175;29;20043;-55
2022/06/12 11:10:43;;;;;;;12.23;5.03;;;25.80;99.90;;;;;;4924627;29;20058;-56
2022/06/12 11:13:37;;;;;;;15.40;4.80;;;25.80;99.90;;;;;;4932233;29;20087;-57
2022/06/12 11:16:21;;;;;;;17.83;4.80;;;25.80;99.90;;;;;;4932177;29;20023;-56
2022/06/12 11:19:05;;;;;;;17.02;6.25;;;25.80;99.90;;;;;;4937838;29;20139;-56
2022/06/12 11:21:52;;;;;;;15.95;4.55;;;25.80;99.90;;;;;;4935629;29;20456;-55
2022/06/12 11:24:31;;;;;;;;;;;25.80;99.90;;;;;;4936516;29;20020;-55
2022/06/12 11:27:25;;;;;;;12.30;4.05;;;25.90;99.90;;;;;;4937910;29;19917;-54
2022/06/12 11:30:22;;;;;;;14.80;8.23;;;26.00;99.90;;;;;;4951790;28;20119;-55
2022/06/12 11:33:23;;;;;;;11.93;3.35;;;26.00;99.90;;;;;;4946112;29;20033;-56
2022/06/12 11:36:09;;;;;;;12.30;4.43;;;26.00;99.90;;;;;;4923401;29;20506;-57
2022/06/12 11:39:03;;;;;;;16.45;5.55;;;26.00;99.90;;;;;;4937218;29;20031;-56
2022/06/12 11:41:40;;;;;;;16.42;7.40;;;26.00;99.90;;;;;;4937935;29;20048;-56
2022/06/12 11:44:27;;;;;;;13.10;5.75;;;26.00;99.90;;;;;;4935971;29;20043;-56
2022/06/12 11:47:02;;;;;;;19.30;8.80;;;25.90;99.90;;;;;;4943244;29;20492;-56
2022/06/12 11:49:58;;;;;;;15.02;7.93;;;25.80;99.90;;;;;;4935482;29;20086;-56
2022/06/12 11:52:45;;;;;;;19.50;8.00;;;25.90;99.90;;;;;;4934078;29;20032;-56
2022/06/12 11:55:17;;;;;;;;;;;26.00;99.90;;;;;;4938637;29;20399;-55
2022/06/12 11:57:45;;;;;;;16.80;5.63;;;26.00;99.90;;;;;;4929009;29;19907;-58
2022/06/12 12:00:27;;;;;;;15.43;4.28;;;26.00;99.90;;;;;;4936030;29;20456;-60
2022/06/12 12:03:35;;;;;;;12.45;4.38;;;26.00;99.90;;;;;;4936109;29;20032;-57
2022/06/12 12:06:25;;;;;;;15.40;4.15;;;26.00;99.90;;;;;;4937483;29;20040;-58
2022/06/12 12:09:21;;;;;;;14.32;3.80;;;26.10;99.90;;;;;;4937881;29;20490;-58
2022/06/12 12:12:06;;;;;;;26.15;12.43;;;26.20;99.90;;;;;;4944954;29;20380;-59
2022/06/12 12:14:37;;;;;;;16.67;9.43;;;26.20;99.90;;;;;;4943347;29;20024;-59
2022/06/12 12:17:13;;;;;;;16.08;7.70;;;26.10;99.90;;;;;;4946868;28;20028;-58
2022/06/12 12:20:13;;;;;;;15.02;4.72;;;26.10;99.90;;;;;;4942614;28;20486;-57
2022/06/12 12:22:49;;;;;;;16.00;4.93;;;26.10;99.90;;;;;;4934503;29;20502;-58
2022/06/12 12:25:44;;;;;;;17.65;4.57;;;26.10;99.90;;;;;;4947359;29;20390;-57
2022/06/12 12:28:28;;;;;;;19.50;6.88;;;26.20;99.90;;;;;;4930632;29;20043;-63
2022/06/12 12:31:03;;;;;;;15.25;5.93;;;26.20;99.90;;;;;;4936065;28;20442;-58
2022/06/12 12:33:29;;;;;;;16.63;7.35;;;26.10;99.90;;;;;;4942309;28;20038;-58
2022/06/12 12:41:42;;;;;;;17.73;8.68;;;26.10;99.90;;;;;;4942664;29;20065;-57
2022/06/12 12:44:10;;;;;;;18.17;6.53;;;26.30;99.90;;;;;;4939602;28;20024;-53
2022/06/12 12:46:54;;;;;;;22.08;9.93;;;26.50;99.90;;;;;;4941219;29;20040;-53
2022/06/12 12:49:27;;;;;;;11.07;3.85;;;26.40;99.90;;;;;;4930506;29;20088;-53
2022/06/12 12:52:16;;;;;;;14.43;3.60;;;26.40;99.90;;;;;;4957070;28;20027;-53
2022/06/12 12:54:45;;;;;;;15.68;3.80;;;26.40;99.90;;;;;;4932217;29;20024;-53
2022/06/12 12:57:12;;;;;;;15.27;6.45;;;26.40;99.90;;;;;;4943250;29;20062;-53
2022/06/12 12:59:45;;;;;;;15.60;4.10;;;26.40;99.90;;;;;;4938867;29;20115;-52
2022/06/12 13:02:26;;;;;;;10.68;3.65;;;26.50;99.90;;;;;;4935080;29;20208;-52
2022/06/12 13:04:55;;;;;;;13.40;3.78;;;26.50;99.90;;;;;;4933738;29;20303;-51
2022/06/12 13:07:27;;;;;;;11.48;4.10;;;26.60;99.90;;;;;;4936505;29;20143;-52
2022/06/12 13:10:27;;;;;;;13.43;3.72;;;26.70;99.90;;;;;;4936931;29;20118;-52
2022/06/12 13:13:02;;;;;;;17.30;5.55;;;26.70;99.90;;;;;;4932220;29;20019;-52
2022/06/12 13:15:44;;;;;;;9.23;4.13;;;26.60;99.90;;;;;;4935752;29;20055;-52
2022/06/12 13:18:28;;;;;;;14.65;5.35;;;26.60;99.90;;;;;;4935040;29;20028;-52
2022/06/12 13:21:13;;;;;;;14.90;7.63;;;26.60;99.90;;;;;;4935624;29;20559;-53
2022/06/12 13:23:51;;;;;;;15.05;5.32;;;26.60;99.90;;;;;;4932330;29;20028;-54
2022/06/12 13:26:18;;;;;;;;;;;26.50;99.90;;;;;;4932398;29;20046;-53
2022/06/12 13:28:56;;;;;;;9.93;3.33;;;26.60;99.90;;;;;;4933626;28;19910;-54
2022/06/12 13:31:22;;;;;;;11.23;4.25;;;26.60;99.90;;;;;;4933679;29;20047;-53
2022/06/12 13:33:57;;;;;;;9.15;2.63;;;26.50;99.90;;;;;;4934869;29;20142;-52
2022/06/12 13:36:33;;;;;;;9.70;2.95;;;26.60;99.90;;;;;;4930252;29;20435;-53